Poplar Grove, IL (61065)

3:49 AM CDT on October 25, 2014 (GMT -0500)
PG Elementary School | Change Station
CLOSE
Current Station
Personal Weather Station
Location: Poplar Grove, IL
Elevation: 906 ft
Nearby Weather Stations

Elev 906 ft 42.37 °N, 88.82 °W | Updated 4 minutes ago

Overcast
Overcast
55.4 °F
Feels Like 55.4 °F
N
4.0
Wind Variable Wind from West
Gusts 6.0 mph

Today
High -- | Low -- °F
--% Chance of Precip.
Yesterday
High -- | Low -- °F
Precip. -- in
7:20 AM 5:58 PM
New Moon, 2% visible
Pressure 29.95 in
Visibility 5.0 miles
Clouds Mostly Cloudy 800 ft
Dew Point 55 °F
Humidity 100%
Rainfall 0.00 in
Snow Depth Not available.
UV 0 out of 12
Pollen 1.40 out of 12
Ozone Good
PM2.5 Good
Flu Activity No Activity
METAR KRFD 250754Z 29006KT 5SM BCFG BR BKN008 13/12 A2995 RMK AO2 SLP141 VIS SW-W 2 T01330122

More Conditions Fewer Conditions

Pressure 29.95 in
Visibility 5.0 miles
Clouds Mostly Cloudy 800 ft
Dew Point 55 °F
Humidity 100%
Rainfall 0.00 in
Snow Depth Not available.
UV 0 out of 12
Pollen 1.40 out of 12
Ozone Good
PM2.5 Good
Flu Activity No Activity
METAR KRFD 250754Z 29006KT 5SM BCFG BR BKN008 13/12 A2995 RMK AO2 SLP141 VIS SW-W 2 T01330122

More Conditions Fewer Conditions

10-Day Weather Forecast

Almanac

Astronomy

Oct. 25, 2014 Rise Set
Actual Time 7:20 AM CDT 5:58 PM CDT
Civil Twilight 6:51 AM CDT 6:26 PM CDT
Nautical Twilight 6:18 AM CDT 6:59 PM CDT
Astronomical Twilight 5:45 AM CDT 7:32 PM CDT
Moon 9:00 AM CDT 7:19 PM CDT
Length of Visible Light 11h 35m
Length of Day
10h 37m
Tomorrow will be 2m 38s shorter.
New Moon, 2% of the Moon is Illuminated
Today
New Moon
Oct 30
First Quarter
Nov 6
Full
Nov 14
Last Quarter
Nov 22
New

Today's Extremes

State Highs State Lows

Community

WunderPhotos

Upload Photos

1,764,791 photos uploaded!

Nearby

Air Quality

  Air Quality AQ Index Pollutant
Yesterday Good
PM2.5
Yesterday Good
OZONE
Current Good
PM2.5
Current Good
OZONE
Saturday Good
PM2.5
Sunday Good
PM2.5
Monday Good
PM2.5
Tuesday Good
PM2.5
Wednesday Good
PM2.5

Snow Depth

Station Depth Elevation
No new snow has been reported.

Earthquake Activity

City Distance Mag. Time & Date
No recent earthquake activity has been reported nearby.
Minimum magnitude displayed is 2.5.

Coastal Water Temperatures

Place Temperature
No Stations Reporting

Nearby Weather Stations